sensor_id;sensor_type;location;lat;lon;timestamp;pressure;altitude;pressure_sealevel;temperature;humidity
26807;BME280;14380;49.910;6.792;2024-01-10T00:00:29;99832.00;;;-3.12;57.63
26807;BME280;14380;49.910;6.792;2024-01-10T00:02:57;99829.97;;;-3.29;57.97
26807;BME280;14380;49.910;6.792;2024-01-10T00:05:24;99827.84;;;-3.03;58.60
26807;BME280;14380;49.910;6.792;2024-01-10T00:07:50;99826.78;;;-3.14;58.73
26807;BME280;14380;49.910;6.792;2024-01-10T00:10:17;99828.22;;;-3.30;57.57
26807;BME280;14380;49.910;6.792;2024-01-10T00:12:43;99827.13;;;-3.43;57.63
26807;BME280;14380;49.910;6.792;2024-01-10T00:15:10;99819.09;;;-3.11;58.29
26807;BME280;14380;49.910;6.792;2024-01-10T00:17:37;99826.44;;;-3.34;57.95
26807;BME280;14380;49.910;6.792;2024-01-10T00:20:08;99824.56;;;-3.41;57.99
26807;BME280;14380;49.910;6.792;2024-01-10T00:22:34;99822.34;;;-3.23;58.28
26807;BME280;14380;49.910;6.792;2024-01-10T00:25:01;99823.00;;;-3.35;58.25
26807;BME280;14380;49.910;6.792;2024-01-10T00:27:29;99819.53;;;-3.35;58.33
26807;BME280;14380;49.910;6.792;2024-01-10T00:29:55;99816.09;;;-3.36;59.10
26807;BME280;14380;49.910;6.792;2024-01-10T00:32:23;99819.59;;;-3.31;58.27
26807;BME280;14380;49.910;6.792;2024-01-10T00:34:49;99817.00;;;-3.34;58.32
26807;BME280;14380;49.910;6.792;2024-01-10T00:37:18;99815.19;;;-3.36;59.19
26807;BME280;14380;49.910;6.792;2024-01-10T00:39:44;99812.94;;;-3.65;58.52
26807;BME280;14380;49.910;6.792;2024-01-10T00:42:11;99814.59;;;-3.23;59.18
26807;BME280;14380;49.910;6.792;2024-01-10T00:44:37;99802.47;;;-3.27;59.47
26807;BME280;14380;49.910;6.792;2024-01-10T00:47:04;99808.41;;;-3.31;59.85
26807;BME280;14380;49.910;6.792;2024-01-10T00:49:31;99804.91;;;-3.35;59.56
26807;BME280;14380;49.910;6.792;2024-01-10T00:51:57;99812.13;;;-3.64;59.45
26807;BME280;14380;49.910;6.792;2024-01-10T00:54:25;99809.72;;;-3.53;59.52
26807;BME280;14380;49.910;6.792;2024-01-10T00:56:52;99804.44;;;-3.60;59.83
26807;BME280;14380;49.910;6.792;2024-01-10T00:59:18;99799.31;;;-3.58;60.06
26807;BME280;14380;49.910;6.792;2024-01-10T01:01:45;99797.53;;;-3.61;60.20
26807;BME280;14380;49.910;6.792;2024-01-10T01:04:11;99802.88;;;-3.51;59.83
26807;BME280;14380;49.910;6.792;2024-01-10T01:06:38;99796.69;;;-3.60;59.79
26807;BME280;14380;49.910;6.792;2024-01-10T01:09:04;99797.47;;;-3.65;60.10
26807;BME280;14380;49.910;6.792;2024-01-10T01:11:33;99794.97;;;-3.61;60.15
26807;BME280;14380;49.910;6.792;2024-01-10T01:13:59;99796.94;;;-3.46;59.98
26807;BME280;14380;49.910;6.792;2024-01-10T01:16:26;99795.72;;;-3.66;60.67
26807;BME280;14380;49.910;6.792;2024-01-10T01:18:52;99796.31;;;-3.80;59.79
26807;BME280;14380;49.910;6.792;2024-01-10T01:21:21;99801.00;;;-3.60;60.10
26807;BME280;14380;49.910;6.792;2024-01-10T01:23:48;99791.94;;;-3.84;60.10
26807;BME280;14380;49.910;6.792;2024-01-10T01:26:14;99789.41;;;-3.82;60.81
26807;BME280;14380;49.910;6.792;2024-01-10T01:28:42;99787.16;;;-3.65;60.61
26807;BME280;14380;49.910;6.792;2024-01-10T01:31:09;99789.34;;;-3.85;60.57
26807;BME280;14380;49.910;6.792;2024-01-10T01:33:35;99788.91;;;-3.63;60.74
26807;BME280;14380;49.910;6.792;2024-01-10T01:36:04;99784.25;;;-3.81;59.99
26807;BME280;14380;49.910;6.792;2024-01-10T01:38:31;99781.94;;;-3.67;60.25
26807;BME280;14380;49.910;6.792;2024-01-10T01:40:57;99775.81;;;-3.72;60.54
26807;BME280;14380;49.910;6.792;2024-01-10T01:43:25;99776.56;;;-3.79;60.84
26807;BME280;14380;49.910;6.792;2024-01-10T01:45:54;99766.50;;;-3.65;61.25
26807;BME280;14380;49.910;6.792;2024-01-10T01:48:22;99774.25;;;-3.64;60.54
26807;BME280;14380;49.910;6.792;2024-01-10T01:50:51;99768.25;;;-3.63;60.60
26807;BME280;14380;49.910;6.792;2024-01-10T01:53:19;99778.06;;;-3.89;60.69
26807;BME280;14380;49.910;6.792;2024-01-10T01:55:46;99773.47;;;-3.60;61.44
26807;BME280;14380;49.910;6.792;2024-01-10T01:58:13;99779.03;;;-3.84;60.85
26807;BME280;14380;49.910;6.792;2024-01-10T02:00:40;99764.66;;;-3.71;61.48
26807;BME280;14380;49.910;6.792;2024-01-10T02:03:10;99768.50;;;-3.95;61.29
26807;BME280;14380;49.910;6.792;2024-01-10T02:05:37;99767.16;;;-3.74;61.32
26807;BME280;14380;49.910;6.792;2024-01-10T02:08:04;99762.72;;;-3.83;61.29
26807;BME280;14380;49.910;6.792;2024-01-10T02:10:31;99763.94;;;-4.08;61.23
26807;BME280;14380;49.910;6.792;2024-01-10T02:12:57;99761.97;;;-3.77;61.54
26807;BME280;14380;49.910;6.792;2024-01-10T02:15:24;99768.06;;;-3.72;61.67
26807;BME280;14380;49.910;6.792;2024-01-10T02:17:51;99768.88;;;-3.76;60.96
26807;BME280;14380;49.910;6.792;2024-01-10T02:20:19;99769.72;;;-3.77;61.63
26807;BME280;14380;49.910;6.792;2024-01-10T02:22:46;99768.28;;;-3.61;62.04
26807;BME280;14380;49.910;6.792;2024-01-10T02:25:16;99755.81;;;-3.84;61.36
26807;BME280;14380;49.910;6.792;2024-01-10T02:27:43;99757.84;;;-3.67;61.93
26807;BME280;14380;49.910;6.792;2024-01-10T02:30:10;99760.69;;;-3.99;61.47
26807;BME280;14380;49.910;6.792;2024-01-10T02:32:37;99759.22;;;-3.85;62.02
26807;BME280;14380;49.910;6.792;2024-01-10T02:35:04;99759.88;;;-3.95;61.34
26807;BME280;14380;49.910;6.792;2024-01-10T02:37:31;99753.09;;;-3.92;62.05
26807;BME280;14380;49.910;6.792;2024-01-10T02:39:58;99749.91;;;-3.78;61.66
26807;BME280;14380;49.910;6.792;2024-01-10T02:42:26;99757.31;;;-3.95;61.76
26807;BME280;14380;49.910;6.792;2024-01-10T02:44:53;99756.91;;;-4.17;61.78
26807;BME280;14380;49.910;6.792;2024-01-10T02:47:19;99751.28;;;-3.96;62.17
26807;BME280;14380;49.910;6.792;2024-01-10T02:49:46;99752.44;;;-4.24;63.02
26807;BME280;14380;49.910;6.792;2024-01-10T02:52:12;99753.25;;;-4.27;62.98
26807;BME280;14380;49.910;6.792;2024-01-10T02:54:39;99748.09;;;-4.27;62.84
26807;BME280;14380;49.910;6.792;2024-01-10T02:57:06;99739.75;;;-4.15;63.09
26807;BME280;14380;49.910;6.792;2024-01-10T02:59:34;99740.59;;;-4.14;63.90
26807;BME280;14380;49.910;6.792;2024-01-10T03:02:00;99747.28;;;-4.26;63.22
26807;BME280;14380;49.910;6.792;2024-01-10T03:04:27;99743.22;;;-4.13;62.91
26807;BME280;14380;49.910;6.792;2024-01-10T03:06:53;99745.69;;;-4.19;63.03
26807;BME280;14380;49.910;6.792;2024-01-10T03:09:22;99735.63;;;-4.07;63.40
26807;BME280;14380;49.910;6.792;2024-01-10T03:11:48;99742.25;;;-4.18;62.91
26807;BME280;14380;49.910;6.792;2024-01-10T03:14:15;99734.38;;;-4.26;63.56
26807;BME280;14380;49.910;6.792;2024-01-10T03:16:43;99734.59;;;-4.13;63.19
26807;BME280;14380;49.910;6.792;2024-01-10T03:19:09;99738.97;;;-4.09;63.55
26807;BME280;14380;49.910;6.792;2024-01-10T03:21:36;99741.00;;;-3.94;63.32
26807;BME280;14380;49.910;6.792;2024-01-10T03:24:03;99739.56;;;-4.24;62.95
26807;BME280;14380;49.910;6.792;2024-01-10T03:26:30;99738.22;;;-4.05;63.33
26807;BME280;14380;49.910;6.792;2024-01-10T03:28:57;99736.19;;;-4.22;63.22
26807;BME280;14380;49.910;6.792;2024-01-10T03:31:23;99735.28;;;-4.22;63.87
26807;BME280;14380;49.910;6.792;2024-01-10T03:33:52;99733.56;;;-4.23;64.29
26807;BME280;14380;49.910;6.792;2024-01-10T03:36:18;99727.47;;;-4.27;64.47
26807;BME280;14380;49.910;6.792;2024-01-10T03:38:45;99726.31;;;-4.41;64.23
26807;BME280;14380;49.910;6.792;2024-01-10T03:41:13;99722.44;;;-4.21;63.43
26807;BME280;14380;49.910;6.792;2024-01-10T03:43:39;99726.66;;;-4.26;63.29
26807;BME280;14380;49.910;6.792;2024-01-10T03:46:06;99710.44;;;-4.19;63.85
26807;BME280;14380;49.910;6.792;2024-01-10T03:48:32;99703.66;;;-4.13;63.51
26807;BME280;14380;49.910;6.792;2024-01-10T03:51:01;99703.38;;;-4.27;63.67
26807;BME280;14380;49.910;6.792;2024-01-10T03:53:28;99694.94;;;-4.22;64.10
26807;BME280;14380;49.910;6.792;2024-01-10T03:55:54;99704.16;;;-4.31;64.28
26807;BME280;14380;49.910;6.792;2024-01-10T03:58:23;99707.69;;;-4.28;63.57
26807;BME280;14380;49.910;6.792;2024-01-10T04:00:49;99703.00;;;-4.03;63.61
26807;BME280;14380;49.910;6.792;2024-01-10T04:03:16;99704.50;;;-4.14;63.84
26807;BME280;14380;49.910;6.792;2024-01-10T04:05:43;99698.88;;;-3.95;63.73
26807;BME280;14380;49.910;6.792;2024-01-10T04:08:11;99712.63;;;-3.94;63.03
26807;BME280;14380;49.910;6.792;2024-01-10T04:10:37;99716.78;;;-4.03;63.49
26807;BME280;14380;49.910;6.792;2024-01-10T04:13:04;99710.38;;;-3.76;63.91
26807;BME280;14380;49.910;6.792;2024-01-10T04:15:31;99709.25;;;-3.92;65.33
26807;BME280;14380;49.910;6.792;2024-01-10T04:17:57;99716.84;;;-3.99;66.46
26807;BME280;14380;49.910;6.792;2024-01-10T04:20:24;99716.66;;;-4.09;66.95
26807;BME280;14380;49.910;6.792;2024-01-10T04:22:51;99728.97;;;-4.38;67.77
26807;BME280;14380;49.910;6.792;2024-01-10T04:25:20;99711.31;;;-4.20;68.24
26807;BME280;14380;49.910;6.792;2024-01-10T04:27:46;99718.41;;;-4.06;68.37
26807;BME280;14380;49.910;6.792;2024-01-10T04:30:15;99710.59;;;-4.11;67.37
26807;BME280;14380;49.910;6.792;2024-01-10T04:32:42;99715.44;;;-4.26;67.01
26807;BME280;14380;49.910;6.792;2024-01-10T04:35:09;99712.59;;;-4.39;68.04
26807;BME280;14380;49.910;6.792;2024-01-10T04:37:36;99710.28;;;-4.28;68.56
26807;BME280;14380;49.910;6.792;2024-01-10T04:40:03;99712.16;;;-4.18;67.30
26807;BME280;14380;49.910;6.792;2024-01-10T04:42:31;99707.66;;;-4.29;66.55
26807;BME280;14380;49.910;6.792;2024-01-10T04:44:58;99704.09;;;-4.36;66.13
26807;BME280;14380;49.910;6.792;2024-01-10T04:47:24;99713.06;;;-4.17;66.85
26807;BME280;14380;49.910;6.792;2024-01-10T04:49:51;99712.84;;;-4.28;66.92
26807;BME280;14380;49.910;6.792;2024-01-10T04:52:17;99709.03;;;-4.03;64.92
26807;BME280;14380;49.910;6.792;2024-01-10T04:54:44;99707.31;;;-4.02;64.56
26807;BME280;14380;49.910;6.792;2024-01-10T04:57:10;99706.78;;;-3.84;63.94
26807;BME280;14380;49.910;6.792;2024-01-10T04:59:38;99705.06;;;-3.85;64.44
26807;BME280;14380;49.910;6.792;2024-01-10T05:02:05;99708.03;;;-4.11;66.35
26807;BME280;14380;49.910;6.792;2024-01-10T05:04:32;99713.91;;;-4.16;65.55
26807;BME280;14380;49.910;6.792;2024-01-10T05:06:58;99712.06;;;-4.24;65.99
26807;BME280;14380;49.910;6.792;2024-01-10T05:09:25;99713.19;;;-4.09;64.12
26807;BME280;14380;49.910;6.792;2024-01-10T05:11:52;99709.84;;;-4.05;64.90
26807;BME280;14380;49.910;6.792;2024-01-10T05:14:20;99710.53;;;-4.14;64.60
26807;BME280;14380;49.910;6.792;2024-01-10T05:16:48;99703.69;;;-4.12;64.76
26807;BME280;14380;49.910;6.792;2024-01-10T05:19:14;99709.19;;;-3.95;65.13
26807;BME280;14380;49.910;6.792;2024-01-10T05:21:41;99712.47;;;-4.04;65.33
26807;BME280;14380;49.910;6.792;2024-01-10T05:24:08;99709.44;;;-4.25;64.72
26807;BME280;14380;49.910;6.792;2024-01-10T05:26:34;99713.88;;;-4.20;64.18
26807;BME280;14380;49.910;6.792;2024-01-10T05:29:01;99714.28;;;-3.96;64.78
26807;BME280;14380;49.910;6.792;2024-01-10T05:31:28;99726.03;;;-4.55;65.17
26807;BME280;14380;49.910;6.792;2024-01-10T05:33:56;99717.84;;;-3.91;65.60
26807;BME280;14380;49.910;6.792;2024-01-10T05:36:22;99712.72;;;-3.90;65.13
26807;BME280;14380;49.910;6.792;2024-01-10T05:38:49;99710.56;;;-4.12;64.90
26807;BME280;14380;49.910;6.792;2024-01-10T05:41:15;99706.91;;;-4.24;64.69
26807;BME280;14380;49.910;6.792;2024-01-10T05:43:42;99711.84;;;-3.90;65.51
26807;BME280;14380;49.910;6.792;2024-01-10T05:46:09;99709.63;;;-4.16;65.19
26807;BME280;14380;49.910;6.792;2024-01-10T05:48:36;99709.09;;;-3.99;65.64
26807;BME280;14380;49.910;6.792;2024-01-10T05:51:04;99703.25;;;-3.91;64.74
26807;BME280;14380;49.910;6.792;2024-01-10T05:53:31;99703.25;;;-3.91;65.13
26807;BME280;14380;49.910;6.792;2024-01-10T05:55:58;99708.16;;;-4.03;65.00
26807;BME280;14380;49.910;6.792;2024-01-10T05:58:24;99698.66;;;-4.06;65.25
26807;BME280;14380;49.910;6.792;2024-01-10T06:00:51;99711.31;;;-4.18;65.01
26807;BME280;14380;49.910;6.792;2024-01-10T06:03:18;99707.44;;;-3.97;65.80
26807;BME280;14380;49.910;6.792;2024-01-10T06:05:45;99704.44;;;-4.18;65.17
26807;BME280;14380;49.910;6.792;2024-01-10T06:08:13;99705.53;;;-4.06;65.62
26807;BME280;14380;49.910;6.792;2024-01-10T06:10:40;99702.28;;;-3.94;65.46
26807;BME280;14380;49.910;6.792;2024-01-10T06:13:07;99704.94;;;-3.91;65.05
26807;BME280;14380;49.910;6.792;2024-01-10T06:15:35;99703.19;;;-3.94;66.65
26807;BME280;14380;49.910;6.792;2024-01-10T06:18:01;99693.72;;;-3.95;65.21
26807;BME280;14380;49.910;6.792;2024-01-10T06:20:28;99706.56;;;-3.96;65.34
26807;BME280;14380;49.910;6.792;2024-01-10T06:22:57;99694.34;;;-4.07;65.66
26807;BME280;14380;49.910;6.792;2024-01-10T06:25:25;99696.66;;;-3.75;65.78
26807;BME280;14380;49.910;6.792;2024-01-10T06:27:51;99695.41;;;-3.95;66.17
26807;BME280;14380;49.910;6.792;2024-01-10T06:30:18;99693.88;;;-3.85;65.16
26807;BME280;14380;49.910;6.792;2024-01-10T06:32:44;99694.53;;;-3.97;65.35
26807;BME280;14380;49.910;6.792;2024-01-10T06:35:11;99704.91;;;-3.93;66.27
26807;BME280;14380;49.910;6.792;2024-01-10T06:37:38;99705.47;;;-4.09;66.18
26807;BME280;14380;49.910;6.792;2024-01-10T06:40:05;99704.19;;;-3.85;65.77
26807;BME280;14380;49.910;6.792;2024-01-10T06:42:34;99699.78;;;-3.91;65.90
26807;BME280;14380;49.910;6.792;2024-01-10T06:45:01;99704.34;;;-4.22;65.70
26807;BME280;14380;49.910;6.792;2024-01-10T06:47:27;99699.03;;;-3.85;66.11
26807;BME280;14380;49.910;6.792;2024-01-10T06:49:54;99697.19;;;-3.91;66.90
26807;BME280;14380;49.910;6.792;2024-01-10T06:52:20;99694.78;;;-3.83;66.73
26807;BME280;14380;49.910;6.792;2024-01-10T06:54:47;99707.25;;;-4.07;65.87
26807;BME280;14380;49.910;6.792;2024-01-10T06:57:13;99714.84;;;-3.67;66.03
26807;BME280;14380;49.910;6.792;2024-01-10T06:59:41;99711.03;;;-3.88;66.95
26807;BME280;14380;49.910;6.792;2024-01-10T07:02:08;99711.47;;;-3.63;66.80
26807;BME280;14380;49.910;6.792;2024-01-10T07:04:36;99717.28;;;-3.75;66.54
26807;BME280;14380;49.910;6.792;2024-01-10T07:07:03;99714.34;;;-3.93;67.28
26807;BME280;14380;49.910;6.792;2024-01-10T07:09:31;99717.81;;;-3.93;67.67
26807;BME280;14380;49.910;6.792;2024-01-10T07:11:57;99726.41;;;-3.92;68.53
26807;BME280;14380;49.910;6.792;2024-01-10T07:14:24;99724.41;;;-4.07;69.39
26807;BME280;14380;49.910;6.792;2024-01-10T07:16:52;99727.84;;;-4.08;68.51
26807;BME280;14380;49.910;6.792;2024-01-10T07:19:22;99726.63;;;-3.81;67.62
26807;BME280;14380;49.910;6.792;2024-01-10T07:21:49;99727.50;;;-3.81;68.49
26807;BME280;14380;49.910;6.792;2024-01-10T07:24:16;99731.69;;;-3.88;68.42
26807;BME280;14380;49.910;6.792;2024-01-10T07:26:43;99734.06;;;-3.97;68.44
26807;BME280;14380;49.910;6.792;2024-01-10T07:29:09;99734.28;;;-3.86;69.25
26807;BME280;14380;49.910;6.792;2024-01-10T07:31:36;99739.47;;;-3.84;69.16
26807;BME280;14380;49.910;6.792;2024-01-10T07:34:04;99733.75;;;-3.68;68.66
26807;BME280;14380;49.910;6.792;2024-01-10T07:36:31;99733.78;;;-3.66;68.31
26807;BME280;14380;49.910;6.792;2024-01-10T07:38:59;99739.72;;;-3.70;69.04
26807;BME280;14380;49.910;6.792;2024-01-10T07:41:25;99746.94;;;-3.51;68.09
26807;BME280;14380;49.910;6.792;2024-01-10T07:43:52;99748.78;;;-3.93;66.62
26807;BME280;14380;49.910;6.792;2024-01-10T07:46:18;99752.94;;;-3.55;66.93
26807;BME280;14380;49.910;6.792;2024-01-10T07:48:45;99757.25;;;-3.52;66.41
26807;BME280;14380;49.910;6.792;2024-01-10T07:51:13;99751.91;;;-3.63;66.54
26807;BME280;14380;49.910;6.792;2024-01-10T07:53:39;99753.59;;;-3.65;65.83
26807;BME280;14380;49.910;6.792;2024-01-10T07:56:06;99761.03;;;-3.82;65.36
26807;BME280;14380;49.910;6.792;2024-01-10T07:58:33;99750.81;;;-3.76;65.23
26807;BME280;14380;49.910;6.792;2024-01-10T08:01:00;99752.16;;;-3.48;65.26
26807;BME280;14380;49.910;6.792;2024-01-10T08:03:26;99746.69;;;-3.66;65.10
26807;BME280;14380;49.910;6.792;2024-01-10T08:05:53;99744.13;;;-3.65;65.49
26807;BME280;14380;49.910;6.792;2024-01-10T08:08:21;99753.44;;;-3.73;64.78
26807;BME280;14380;49.910;6.792;2024-01-10T08:10:47;99751.44;;;-3.40;65.23
26807;BME280;14380;49.910;6.792;2024-01-10T08:13:14;99745.88;;;-3.64;65.46
26807;BME280;14380;49.910;6.792;2024-01-10T08:15:40;99748.81;;;-3.44;65.61
26807;BME280;14380;49.910;6.792;2024-01-10T08:18:07;99750.19;;;-3.63;65.08
26807;BME280;14380;49.910;6.792;2024-01-10T08:20:34;99752.59;;;-3.72;64.90
26807;BME280;14380;49.910;6.792;2024-01-10T08:23:00;99754.63;;;-3.55;65.06
26807;BME280;14380;49.910;6.792;2024-01-10T08:25:28;99759.91;;;-3.49;65.35
26807;BME280;14380;49.910;6.792;2024-01-10T08:27:55;99761.09;;;-3.29;64.69
26807;BME280;14380;49.910;6.792;2024-01-10T08:30:22;99760.81;;;-3.47;66.00
26807;BME280;14380;49.910;6.792;2024-01-10T08:32:49;99755.75;;;-3.39;65.88
26807;BME280;14380;49.910;6.792;2024-01-10T08:35:16;99758.72;;;-3.16;66.14
26807;BME280;14380;49.910;6.792;2024-01-10T08:37:43;99766.47;;;-3.18;67.07
26807;BME280;14380;49.910;6.792;2024-01-10T08:40:12;99759.72;;;-3.08;67.76
26807;BME280;14380;49.910;6.792;2024-01-10T08:42:42;99765.69;;;-3.12;65.99
26807;BME280;14380;49.910;6.792;2024-01-10T08:45:09;99769.47;;;-2.91;65.62
26807;BME280;14380;49.910;6.792;2024-01-10T08:47:36;99766.56;;;-3.11;66.15
26807;BME280;14380;49.910;6.792;2024-01-10T08:50:04;99768.75;;;-2.82;66.67
26807;BME280;14380;49.910;6.792;2024-01-10T08:52:34;99777.13;;;-3.47;66.00
26807;BME280;14380;49.910;6.792;2024-01-10T08:55:00;99780.91;;;-3.28;65.50
26807;BME280;14380;49.910;6.792;2024-01-10T08:57:27;99771.91;;;-3.01;65.05
26807;BME280;14380;49.910;6.792;2024-01-10T08:59:55;99767.06;;;-2.79;65.57
26807;BME280;14380;49.910;6.792;2024-01-10T09:02:21;99772.91;;;-2.92;65.32
26807;BME280;14380;49.910;6.792;2024-01-10T09:04:48;99771.28;;;-2.84;65.44
26807;BME280;14380;49.910;6.792;2024-01-10T09:07:15;99775.13;;;-2.59;65.30
26807;BME280;14380;49.910;6.792;2024-01-10T09:09:43;99768.59;;;-2.92;65.30
26807;BME280;14380;49.910;6.792;2024-01-10T09:12:09;99768.38;;;-2.47;64.70
26807;BME280;14380;49.910;6.792;2024-01-10T09:14:36;99772.22;;;-2.79;64.47
26807;BME280;14380;49.910;6.792;2024-01-10T09:17:05;99763.66;;;-2.76;65.06
26807;BME280;14380;49.910;6.792;2024-01-10T09:19:32;99756.66;;;-2.84;65.18
26807;BME280;14380;49.910;6.792;2024-01-10T09:21:59;99756.97;;;-2.62;65.19
26807;BME280;14380;49.910;6.792;2024-01-10T09:24:26;99765.75;;;-2.50;64.21
26807;BME280;14380;49.910;6.792;2024-01-10T09:26:52;99758.88;;;-2.48;64.31
26807;BME280;14380;49.910;6.792;2024-01-10T09:29:19;99766.41;;;-2.67;63.84
26807;BME280;14380;49.910;6.792;2024-01-10T09:31:46;99761.91;;;-2.79;63.68
26807;BME280;14380;49.910;6.792;2024-01-10T09:34:14;99757.25;;;-2.43;64.28
26807;BME280;14380;49.910;6.792;2024-01-10T09:36:40;99754.78;;;-2.32;64.04
26807;BME280;14380;49.910;6.792;2024-01-10T09:39:07;99760.44;;;-2.60;63.64
26807;BME280;14380;49.910;6.792;2024-01-10T09:41:40;99764.34;;;-2.28;63.57
26807;BME280;14380;49.910;6.792;2024-01-10T09:44:10;99766.78;;;-2.37;63.33
26807;BME280;14380;49.910;6.792;2024-01-10T09:46:38;99771.16;;;-2.33;62.93
26807;BME280;14380;49.910;6.792;2024-01-10T09:49:07;99773.66;;;-2.41;62.69
26807;BME280;14380;49.910;6.792;2024-01-10T09:51:35;99775.56;;;-2.28;62.64
26807;BME280;14380;49.910;6.792;2024-01-10T09:54:03;99783.50;;;-2.14;62.55
26807;BME280;14380;49.910;6.792;2024-01-10T09:56:30;99777.31;;;-2.25;62.76
26807;BME280;14380;49.910;6.792;2024-01-10T09:58:58;99775.94;;;-1.97;62.53
26807;BME280;14380;49.910;6.792;2024-01-10T10:01:27;99786.03;;;-2.15;62.86
26807;BME280;14380;49.910;6.792;2024-01-10T10:03:56;99779.69;;;-1.70;62.06
26807;BME280;14380;49.910;6.792;2024-01-10T10:06:23;99785.34;;;-2.03;62.38
26807;BME280;14380;49.910;6.792;2024-01-10T10:08:52;99777.56;;;-2.06;62.59
26807;BME280;14380;49.910;6.792;2024-01-10T10:11:19;99780.19;;;-2.03;62.41
26807;BME280;14380;49.910;6.792;2024-01-10T10:13:45;99781.81;;;-2.12;62.42
26807;BME280;14380;49.910;6.792;2024-01-10T10:16:12;99783.25;;;-1.61;62.40
26807;BME280;14380;49.910;6.792;2024-01-10T10:18:39;99777.28;;;-1.53;62.40
26807;BME280;14380;49.910;6.792;2024-01-10T10:21:07;99784.06;;;-1.66;61.38
26807;BME280;14380;49.910;6.792;2024-01-10T10:23:36;99772.19;;;-1.45;61.90
26807;BME280;14380;49.910;6.792;2024-01-10T10:26:14;99769.50;;;-1.54;61.99
26807;BME280;14380;49.910;6.792;2024-01-10T10:28:46;99770.56;;;-1.35;61.60
26807;BME280;14380;49.910;6.792;2024-01-10T10:31:12;99771.47;;;-1.30;62.34
26807;BME280;14380;49.910;6.792;2024-01-10T10:33:40;99759.16;;;-1.53;61.37
26807;BME280;14380;49.910;6.792;2024-01-10T10:36:07;99765.63;;;-1.04;61.60
26807;BME280;14380;49.910;6.792;2024-01-10T10:38:33;99760.16;;;-1.38;60.83
26807;BME280;14380;49.910;6.792;2024-01-10T10:41:04;99770.00;;;-1.00;61.01
26807;BME280;14380;49.910;6.792;2024-01-10T10:43:34;99763.13;;;-0.95;61.72
26807;BME280;14380;49.910;6.792;2024-01-10T10:46:03;99760.66;;;-0.79;60.93
26807;BME280;14380;49.910;6.792;2024-01-10T10:48:32;99759.50;;;-1.14;60.68
26807;BME280;14380;49.910;6.792;2024-01-10T10:51:03;99755.31;;;-1.02;60.64
26807;BME280;14380;49.910;6.792;2024-01-10T10:53:32;99756.25;;;-0.88;60.86
26807;BME280;14380;49.910;6.792;2024-01-10T10:56:00;99750.09;;;-1.06;60.85
26807;BME280;14380;49.910;6.792;2024-01-10T10:58:29;99746.09;;;-0.60;60.64
26807;BME280;14380;49.910;6.792;2024-01-10T11:00:59;99755.50;;;-0.75;60.82
26807;BME280;14380;49.910;6.792;2024-01-10T11:03:27;99753.06;;;-0.53;60.85
26807;BME280;14380;49.910;6.792;2024-01-10T11:05:55;99747.47;;;-1.07;60.13
26807;BME280;14380;49.910;6.792;2024-01-10T11:08:22;99749.22;;;-1.08;60.12
26807;BME280;14380;49.910;6.792;2024-01-10T11:10:50;99746.63;;;-1.06;61.12
26807;BME280;14380;49.910;6.792;2024-01-10T11:13:29;99739.78;;;-0.95;61.12
26807;BME280;14380;49.910;6.792;2024-01-10T11:19:19;99737.41;;;-0.61;60.87
26807;BME280;14380;49.910;6.792;2024-01-10T11:22:00;99733.19;;;-0.51;61.13
26807;BME280;14380;49.910;6.792;2024-01-10T11:24:31;99746.84;;;-0.77;60.81
26807;BME280;14380;49.910;6.792;2024-01-10T11:27:06;99742.69;;;-0.50;61.04
26807;BME280;14380;49.910;6.792;2024-01-10T11:29:37;99745.16;;;-0.68;60.76
26807;BME280;14380;49.910;6.792;2024-01-10T11:32:06;99745.22;;;-0.59;60.52
26807;BME280;14380;49.910;6.792;2024-01-10T11:34:35;99749.63;;;-0.49;60.60
26807;BME280;14380;49.910;6.792;2024-01-10T11:37:12;99752.06;;;-0.72;60.60
26807;BME280;14380;49.910;6.792;2024-01-10T11:39:41;99751.22;;;-0.68;61.89
26807;BME280;14380;49.910;6.792;2024-01-10T11:42:09;99741.88;;;-0.39;60.89
26807;BME280;14380;49.910;6.792;2024-01-10T11:44:46;99742.75;;;-0.34;61.19
26807;BME280;14380;49.910;6.792;2024-01-10T11:47:16;99755.38;;;-0.92;61.49
26807;BME280;14380;49.910;6.792;2024-01-10T11:49:54;99746.19;;;-0.43;60.93
26807;BME280;14380;49.910;6.792;2024-01-10T11:52:22;99744.34;;;-0.64;60.30
26807;BME280;14380;49.910;6.792;2024-01-10T11:54:49;99737.56;;;-0.34;60.45
26807;BME280;14380;49.910;6.792;2024-01-10T11:57:20;99744.41;;;-0.52;62.66
26807;BME280;14380;49.910;6.792;2024-01-10T11:59:50;99736.72;;;-0.33;61.60
26807;BME280;14380;49.910;6.792;2024-01-10T12:02:19;99745.28;;;-0.43;62.48
26807;BME280;14380;49.910;6.792;2024-01-10T12:04:46;99736.69;;;-0.39;61.97
26807;BME280;14380;49.910;6.792;2024-01-10T12:07:13;99730.75;;;-0.17;62.01
26807;BME280;14380;49.910;6.792;2024-01-10T12:09:40;99728.16;;;-0.12;61.55
26807;BME280;14380;49.910;6.792;2024-01-10T12:12:08;99736.59;;;-0.53;61.24
26807;BME280;14380;49.910;6.792;2024-01-10T12:14:36;99733.31;;;-0.20;62.20
26807;BME280;14380;49.910;6.792;2024-01-10T12:17:03;99729.75;;;-0.42;61.86
26807;BME280;14380;49.910;6.792;2024-01-10T12:19:33;99722.09;;;-0.14;62.25
26807;BME280;14380;49.910;6.792;2024-01-10T12:22:00;99715.19;;;-0.10;62.59
26807;BME280;14380;49.910;6.792;2024-01-10T12:24:27;99714.38;;;0.02;61.96
26807;BME280;14380;49.910;6.792;2024-01-10T12:26:55;99717.84;;;0.07;62.10
26807;BME280;14380;49.910;6.792;2024-01-10T12:29:22;99711.78;;;0.12;62.58
26807;BME280;14380;49.910;6.792;2024-01-10T12:31:50;99720.34;;;-0.17;63.07
26807;BME280;14380;49.910;6.792;2024-01-10T12:34:17;99716.72;;;-0.51;64.51
26807;BME280;14380;49.910;6.792;2024-01-10T12:36:45;99723.56;;;-0.69;64.64
26807;BME280;14380;49.910;6.792;2024-01-10T12:39:12;99713.34;;;-0.41;64.35
26807;BME280;14380;49.910;6.792;2024-01-10T12:41:40;99699.59;;;-0.12;62.62
26807;BME280;14380;49.910;6.792;2024-01-10T12:44:06;99698.75;;;-0.12;63.57
26807;BME280;14380;49.910;6.792;2024-01-10T12:46:33;99698.66;;;-0.33;63.45
26807;BME280;14380;49.910;6.792;2024-01-10T12:49:01;99703.13;;;0.10;62.85
26807;BME280;14380;49.910;6.792;2024-01-10T12:51:29;99699.53;;;-0.34;62.10
26807;BME280;14380;49.910;6.792;2024-01-10T12:53:59;99696.97;;;-0.24;63.34
26807;BME280;14380;49.910;6.792;2024-01-10T12:56:26;99689.28;;;0.10;63.83
26807;BME280;14380;49.910;6.792;2024-01-10T12:58:54;99698.81;;;0.26;63.22
26807;BME280;14380;49.910;6.792;2024-01-10T13:01:21;99703.19;;;0.26;63.87
26807;BME280;14380;49.910;6.792;2024-01-10T13:03:48;99697.91;;;0.04;62.89